Time,TemperatureF,DewpointF,PressureIn,WindDirection,WindDirectionDegrees,WindSpeedMPH,WindSpeedGustMPH,Humidity,HourlyPrecipIn,Conditions,Clouds,dailyrainin,SoftwareType,DateUTC
2013-01-29 00:00:00,48.9,44.0,23.28,SE,145,0.0,3.0,83,0.00,,,0.00,VWS V13.01,2013-01-29 05:00:00,
2013-01-29 00:01:00,48.9,44.0,23.28,SE,145,1.0,3.0,83,0.00,,,0.00,VWS V13.01,2013-01-29 05:01:00,
2013-01-29 00:02:00,48.9,44.0,23.28,SE,145,0.0,2.0,83,0.00,,,0.00,VWS V13.01,2013-01-29 05:02:00,
2013-01-29 00:03:00,48.9,44.0,23.28,SSE,149,3.0,3.0,83,0.00,,,0.00,VWS V13.01,2013-01-29 05:03:00,
2013-01-29 00:05:00,48.8,43.9,23.28,ESE,121,1.0,4.0,83,0.00,,,0.00,VWS V13.01,2013-01-29 05:05:00,
2013-01-29 00:08:00,49.0,44.1,23.28,SSE,150,1.0,3.0,83,0.00,,,0.00,VWS V13.01,2013-01-29 05:08:00,
2013-01-29 00:10:00,48.9,44.0,23.28,SE,145,1.0,3.0,83,0.00,,,0.00,VWS V13.01,2013-01-29 05:10:00,
2013-01-29 00:13:00,49.0,44.1,23.28,SSE,164,3.0,4.0,83,0.00,,,0.00,VWS V13.01,2013-01-29 05:13:00,
2013-01-29 00:15:00,49.0,44.1,23.28,SSE,150,3.0,4.0,83,0.00,,,0.00,VWS V13.01,2013-01-29 05:15:00,
2013-01-29 00:18:00,49.0,44.1,23.28,SSE,163,2.0,2.0,83,0.00,,,0.00,VWS V13.01,2013-01-29 05:18:00,
2013-01-29 00:20:00,49.0,44.1,23.28,SSE,149,0.0,3.0,83,0.00,,,0.00,VWS V13.01,2013-01-29 05:20:00,
2013-01-29 00:23:00,49.1,44.2,23.28,SSE,163,2.0,2.0,83,0.00,,,0.00,VWS V13.01,2013-01-29 05:23:00,
2013-01-29 00:25:00,49.0,44.1,23.28,SSE,163,0.0,4.0,83,0.00,,,0.00,VWS V13.01,2013-01-29 05:25:00,
2013-01-29 00:28:00,49.1,44.2,23.28,SSE,163,3.0,4.0,83,0.00,,,0.00,VWS V13.01,2013-01-29 05:28:00,
2013-01-29 00:30:00,49.1,44.2,23.28,SSE,163,0.0,3.0,83,0.00,,,0.00,VWS V13.01,2013-01-29 05:30:00,
2013-01-29 00:33:00,49.2,44.3,23.28,SSE,157,1.0,3.0,83,0.00,,,0.00,VWS V13.01,2013-01-29 05:33:00,
2013-01-29 00:35:00,49.1,44.2,23.28,SSE,163,0.0,4.0,83,0.00,,,0.00,VWS V13.01,2013-01-29 05:35:00,
2013-01-29 00:38:00,49.2,44.3,23.28,SSE,157,0.0,0.0,83,0.00,,,0.00,VWS V13.01,2013-01-29 05:38:00,
2013-01-29 00:40:00,49.2,44.3,23.28,SSE,163,0.0,4.0,83,0.00,,,0.00,VWS V13.01,2013-01-29 05:40:00,
2013-01-29 00:43:00,49.2,44.3,23.28,SSE,157,0.0,1.0,83,0.00,,,0.00,VWS V13.01,2013-01-29 05:43:00,
2013-01-29 00:45:00,49.2,44.3,23.28,SSE,157,0.0,3.0,83,0.00,,,0.00,VWS V13.01,2013-01-29 05:45:00,
2013-01-29 00:48:00,49.0,44.1,23.28,SSE,156,0.0,0.0,83,0.00,,,0.00,VWS V13.01,2013-01-29 05:48:00,
2013-01-29 00:50:00,49.2,44.3,23.28,SSE,157,1.0,2.0,83,0.00,,,0.00,VWS V13.01,2013-01-29 05:50:00,
2013-01-29 00:53:00,48.9,44.0,23.28,SSE,157,0.0,1.0,83,0.00,,,0.00,VWS V13.01,2013-01-29 05:53:00,
2013-01-29 00:55:00,49.0,44.1,23.28,SSE,156,0.0,1.0,83,0.00,,,0.00,VWS V13.01,2013-01-29 05:55:00,
2013-01-29 00:58:00,48.7,43.8,23.28,SSE,157,0.0,0.0,83,0.00,,,0.00,VWS V13.01,2013-01-29 05:58:00,
2013-01-29 01:00:00,49.0,44.1,23.28,SSE,157,1.0,2.0,83,0.00,,,0.00,VWS V13.01,2013-01-29 06:00:00,
2013-01-29 01:03:00,48.5,43.6,23.28,SSE,156,0.0,1.0,83,0.00,,,0.00,VWS V13.01,2013-01-29 06:03:00,
2013-01-29 01:05:00,48.8,43.9,23.28,SSE,157,0.0,1.0,83,0.00,,,0.00,VWS V13.01,2013-01-29 06:05:00,
2013-01-29 01:08:00,48.3,43.7,23.28,SSE,157,0.0,0.0,84,0.00,,,0.00,VWS V13.01,2013-01-29 06:08:00,
2013-01-29 01:10:00,48.5,43.9,23.28,SSE,157,0.0,1.0,84,0.00,,,0.00,VWS V13.01,2013-01-29 06:10:00,
2013-01-29 01:13:00,48.0,43.4,23.28,SSE,156,0.0,0.0,84,0.00,,,0.00,VWS V13.01,2013-01-29 06:13:00,
2013-01-29 01:15:00,48.3,43.7,23.28,SSE,156,0.0,1.0,84,0.00,,,0.00,VWS V13.01,2013-01-29 06:15:00,
2013-01-29 01:18:00,47.8,43.5,23.28,SSE,156,0.0,0.0,85,0.00,,,0.00,VWS V13.01,2013-01-29 06:18:00,
2013-01-29 01:20:00,48.1,43.5,23.28,SSE,157,0.0,1.0,84,0.00,,,0.00,VWS V13.01,2013-01-29 06:20:00,
2013-01-29 01:23:00,47.6,43.0,23.28,SSE,157,0.0,0.0,84,0.00,,,0.00,VWS V13.01,2013-01-29 06:23:00,
2013-01-29 01:25:00,47.8,43.5,23.28,SSE,157,0.0,2.0,85,0.00,,,0.00,VWS V13.01,2013-01-29 06:25:00,
2013-01-29 01:28:00,47.0,42.4,23.28,SSE,157,0.0,0.0,84,0.00,,,0.00,VWS V13.01,2013-01-29 06:28:00,
2013-01-29 01:30:00,47.7,43.1,23.28,SSE,156,0.0,1.0,84,0.00,,,0.00,VWS V13.01,2013-01-29 06:30:00,
2013-01-29 01:33:00,46.5,42.2,23.28,SSE,157,0.0,0.0,85,0.00,,,0.00,VWS V13.01,2013-01-29 06:33:00,
2013-01-29 01:35:00,47.1,42.5,23.28,SSE,156,0.0,0.0,84,0.00,,,0.00,VWS V13.01,2013-01-29 06:35:00,
2013-01-29 01:38:00,46.1,41.8,23.28,SSE,157,1.0,1.0,85,0.00,,,0.00,VWS V13.01,2013-01-29 06:38:00,
2013-01-29 01:40:00,46.7,42.4,23.28,SSE,157,0.0,0.0,85,0.00,,,0.00,VWS V13.01,2013-01-29 06:40:00,
2013-01-29 01:43:00,46.0,42.0,23.28,SSE,156,0.0,0.0,86,0.00,,,0.00,VWS V13.01,2013-01-29 06:43:00,
2013-01-29 01:45:00,46.2,42.0,23.28,SSE,157,0.0,0.0,85,0.00,,,0.00,VWS V13.01,2013-01-29 06:45:00,
2013-01-29 01:48:00,45.8,41.9,23.28,SSE,156,0.0,0.0,86,0.00,,,0.00,VWS V13.01,2013-01-29 06:48:00,
2013-01-29 01:50:00,46.0,42.0,23.28,SSE,156,0.0,1.0,86,0.00,,,0.00,VWS V13.01,2013-01-29 06:50:00,
2013-01-29 01:53:00,45.6,42.0,23.28,SSE,157,0.0,0.0,87,0.00,,,0.00,VWS V13.01,2013-01-29 06:53:00,
2013-01-29 01:55:00,45.9,42.0,23.28,SSE,157,0.0,1.0,86,0.00,,,0.00,VWS V13.01,2013-01-29 06:55:00,
2013-01-29 01:58:00,45.3,41.7,23.28,SSE,157,0.0,0.0,87,0.00,,,0.00,VWS V13.01,2013-01-29 06:58:00,
2013-01-29 02:00:00,45.6,42.0,23.28,SSE,157,0.0,0.0,87,0.00,,,0.00,VWS V13.01,2013-01-29 07:00:00,
2013-01-29 02:03:00,45.1,41.5,23.28,SSE,157,0.0,0.0,87,0.00,,,0.00,VWS V13.01,2013-01-29 07:03:00,
2013-01-29 02:05:00,45.4,41.8,23.28,SSE,156,0.0,0.0,87,0.00,,,0.00,VWS V13.01,2013-01-29 07:05:00,
2013-01-29 02:08:00,44.9,41.6,23.28,SSE,157,0.0,0.0,88,0.00,,,0.00,VWS V13.01,2013-01-29 07:08:00,
2013-01-29 02:10:00,45.2,41.6,23.28,SSE,156,0.0,0.0,87,0.00,,,0.00,VWS V13.01,2013-01-29 07:10:00,
2013-01-29 02:13:00,44.7,41.4,23.28,SSE,156,0.0,1.0,88,0.00,,,0.00,VWS V13.01,2013-01-29 07:13:00,
2013-01-29 02:15:00,45.0,41.4,23.28,SSE,157,0.0,0.0,87,0.00,,,0.00,VWS V13.01,2013-01-29 07:15:00,
2013-01-29 02:18:00,44.8,41.5,23.28,SSE,156,0.0,1.0,88,0.00,,,0.00,VWS V13.01,2013-01-29 07:18:00,
2013-01-29 02:20:00,44.6,41.3,23.28,SSE,156,0.0,1.0,88,0.00,,,0.00,VWS V13.01,2013-01-29 07:20:00,
2013-01-29 02:23:00,44.5,41.2,23.28,SSE,156,0.0,0.0,88,0.00,,,0.00,VWS V13.01,2013-01-29 07:23:00,
2013-01-29 02:25:00,44.8,41.5,23.28,SSE,157,0.0,1.0,88,0.00,,,0.00,VWS V13.01,2013-01-29 07:25:00,
2013-01-29 02:28:00,44.3,41.3,23.28,SSE,157,0.0,0.0,89,0.00,,,0.00,VWS V13.01,2013-01-29 07:28:00,
2013-01-29 02:30:00,44.5,41.2,23.28,SSE,156,0.0,1.0,88,0.00,,,0.00,VWS V13.01,2013-01-29 07:30:00,
2013-01-29 02:33:00,44.6,41.6,23.28,SSE,157,0.0,0.0,89,0.00,,,0.00,VWS V13.01,2013-01-29 07:33:00,
2013-01-29 02:35:00,44.3,41.3,23.28,SSE,157,0.0,0.0,89,0.00,,,0.00,VWS V13.01,2013-01-29 07:35:00,
2013-01-29 02:38:00,44.7,41.7,23.28,SSE,156,0.0,0.0,89,0.00,,,0.00,VWS V13.01,2013-01-29 07:38:00,
2013-01-29 02:40:00,44.5,41.5,23.28,SSE,157,0.0,0.0,89,0.00,,,0.00,VWS V13.01,2013-01-29 07:40:00,
2013-01-29 02:43:00,45.0,42.2,23.28,SSE,156,0.0,0.0,90,0.00,,,0.00,VWS V13.01,2013-01-29 07:43:00,
2013-01-29 02:45:00,44.7,41.7,23.28,SSE,156,0.0,0.0,89,0.00,,,0.00,VWS V13.01,2013-01-29 07:45:00,
2013-01-29 02:48:00,45.1,42.1,23.28,SSE,157,0.0,0.0,89,0.00,,,0.00,VWS V13.01,2013-01-29 07:48:00,
2013-01-29 02:50:00,44.9,42.2,23.28,SSE,157,0.0,1.0,90,0.00,,,0.00,VWS V13.01,2013-01-29 07:50:00,
2013-01-29 02:53:00,45.0,42.0,23.28,SSE,156,1.0,1.0,89,0.00,,,0.00,VWS V13.01,2013-01-29 07:53:00,
2013-01-29 02:55:00,45.1,42.3,23.28,SSE,157,0.0,1.0,90,0.00,,,0.00,VWS V13.01,2013-01-29 07:55:00,
2013-01-29 02:58:00,45.0,42.0,23.28,SSE,156,0.0,0.0,89,0.00,,,0.00,VWS V13.01,2013-01-29 07:58:00,
2013-01-29 03:00:00,45.0,42.0,23.28,SSE,156,0.0,0.0,89,0.00,,,0.00,VWS V13.01,2013-01-29 08:00:00,
2013-01-29 03:03:00,44.9,41.9,23.28,SSE,157,1.0,1.0,89,0.00,,,0.00,VWS V13.01,2013-01-29 08:03:00,
2013-01-29 03:05:00,45.0,42.0,23.28,SSE,156,0.0,1.0,89,0.00,,,0.00,VWS V13.01,2013-01-29 08:05:00,
2013-01-29 03:08:00,44.4,41.4,23.28,SSE,157,0.0,0.0,89,0.00,,,0.00,VWS V13.01,2013-01-29 08:08:00,
2013-01-29 03:10:00,45.0,42.0,23.28,SSE,157,0.0,0.0,89,0.00,,,0.00,VWS V13.01,2013-01-29 08:10:00,
2013-01-29 03:13:00,44.3,41.6,23.28,SSE,157,0.0,0.0,90,0.00,,,0.00,VWS V13.01,2013-01-29 08:13:00,
2013-01-29 03:15:00,44.5,41.5,23.28,SSE,157,0.0,1.0,89,0.00,,,0.00,VWS V13.01,2013-01-29 08:15:00,
2013-01-29 03:18:00,44.4,41.7,23.28,SSE,157,0.0,0.0,90,0.00,,,0.00,VWS V13.01,2013-01-29 08:18:00,
2013-01-29 03:20:00,44.3,41.3,23.28,SSE,156,0.0,0.0,89,0.00,,,0.00,VWS V13.01,2013-01-29 08:20:00,
2013-01-29 03:23:00,44.5,41.8,23.28,SSE,157,0.0,0.0,90,0.00,,,0.00,VWS V13.01,2013-01-29 08:23:00,
2013-01-29 03:25:00,44.3,41.6,23.28,SSE,156,0.0,0.0,90,0.00,,,0.00,VWS V13.01,2013-01-29 08:25:00,
2013-01-29 03:28:00,44.3,41.6,23.28,SSE,156,0.0,1.0,90,0.00,,,0.00,VWS V13.01,2013-01-29 08:28:00,
2013-01-29 03:30:00,44.5,41.8,23.28,SSE,157,0.0,0.0,90,0.00,,,0.00,VWS V13.01,2013-01-29 08:30:00,
2013-01-29 03:33:00,44.1,41.4,23.28,SSE,156,2.0,2.0,90,0.00,,,0.00,VWS V13.01,2013-01-29 08:33:00,
2013-01-29 03:35:00,44.4,41.7,23.28,SSE,157,0.0,0.0,90,0.00,,,0.00,VWS V13.01,2013-01-29 08:35:00,
2013-01-29 03:38:00,44.1,41.4,23.28,SSE,157,0.0,0.0,90,0.00,,,0.00,VWS V13.01,2013-01-29 08:38:00,
2013-01-29 03:40:00,44.1,41.4,23.28,SSE,157,0.0,1.0,90,0.00,,,0.00,VWS V13.01,2013-01-29 08:40:00,
2013-01-29 03:43:00,44.0,41.3,23.28,SSE,157,1.0,2.0,90,0.00,,,0.00,VWS V13.01,2013-01-29 08:43:00,
2013-01-29 03:45:00,44.1,41.4,23.28,SSE,156,0.0,2.0,90,0.00,,,0.00,VWS V13.01,2013-01-29 08:45:00,
2013-01-29 03:48:00,44.5,42.0,23.28,SSE,157,0.0,2.0,91,0.00,,,0.00,VWS V13.01,2013-01-29 08:48:00,
2013-01-29 03:50:00,44.0,41.3,23.28,SSE,157,0.0,0.0,90,0.00,,,0.00,VWS V13.01,2013-01-29 08:50:00,
2013-01-29 03:53:00,44.4,41.7,23.28,SSE,156,1.0,1.0,90,0.00,,,0.00,VWS V13.01,2013-01-29 08:53:00,
2013-01-29 03:55:00,44.3,41.8,23.28,SSE,156,2.0,2.0,91,0.00,,,0.00,VWS V13.01,2013-01-29 08:55:00,
2013-01-29 03:58:00,44.7,42.2,23.28,SSE,156,0.0,1.0,91,0.00,,,0.00,VWS V13.01,2013-01-29 08:58:00,
2013-01-29 04:00:00,44.4,41.7,23.28,SSE,156,0.0,2.0,90,0.00,,,0.00,VWS V13.01,2013-01-29 09:00:00,
2013-01-29 04:03:00,45.0,42.5,23.28,SSE,156,0.0,2.0,91,0.00,,,0.00,VWS V13.01,2013-01-29 09:03:00,
2013-01-29 04:08:00,45.1,42.6,23.28,SSE,156,0.0,0.0,91,0.00,,,0.00,VWS V13.01,2013-01-29 09:08:00,
2013-01-29 04:13:00,45.3,42.8,23.28,SSE,157,0.0,0.0,91,0.00,,,0.00,VWS V13.01,2013-01-29 09:13:00,
2013-01-29 04:18:00,45.5,43.0,23.28,SSE,156,0.0,0.0,91,0.00,,,0.00,VWS V13.01,2013-01-29 09:18:00,
2013-01-29 04:23:00,45.4,42.6,23.28,SSE,157,0.0,0.0,90,0.00,,,0.00,VWS V13.01,2013-01-29 09:23:00,
2013-01-29 04:28:00,45.4,42.6,23.28,SSE,156,0.0,0.0,90,0.00,,,0.00,VWS V13.01,2013-01-29 09:28:00,
2013-01-29 04:33:00,45.0,42.2,23.28,SSE,157,0.0,0.0,90,0.00,,,0.00,VWS V13.01,2013-01-29 09:33:00,
2013-01-29 04:38:00,45.0,42.2,23.28,SSE,156,0.0,1.0,90,0.00,,,0.00,VWS V13.01,2013-01-29 09:38:00,
2013-01-29 04:43:00,45.3,42.8,23.28,SSE,157,0.0,1.0,91,0.00,,,0.00,VWS V13.01,2013-01-29 09:43:00,
2013-01-29 04:48:00,45.2,42.5,23.28,SSE,157,0.0,0.0,90,0.00,,,0.00,VWS V13.01,2013-01-29 09:48:00,
2013-01-29 04:53:00,45.2,42.5,23.28,SSE,157,0.0,0.0,90,0.00,,,0.00,VWS V13.01,2013-01-29 09:53:00,
2013-01-29 04:58:00,45.0,42.2,23.28,SSE,157,0.0,0.0,90,0.00,,,0.00,VWS V13.01,2013-01-29 09:58:00,
2013-01-29 05:03:00,44.8,42.0,23.28,SSE,156,0.0,0.0,90,0.00,,,0.00,VWS V13.01,2013-01-29 10:03:00,
2013-01-29 05:08:00,44.8,42.0,23.28,SSE,157,0.0,0.0,90,0.00,,,0.00,VWS V13.01,2013-01-29 10:08:00,
2013-01-29 05:13:00,44.7,42.0,23.28,SSE,157,0.0,0.0,90,0.00,,,0.00,VWS V13.01,2013-01-29 10:13:00,
2013-01-29 05:18:00,44.5,41.8,23.28,SSE,157,0.0,0.0,90,0.00,,,0.00,VWS V13.01,2013-01-29 10:18:00,
2013-01-29 05:23:00,44.8,42.3,23.28,SSE,156,0.0,0.0,91,0.00,,,0.00,VWS V13.01,2013-01-29 10:23:00,
2013-01-29 05:28:00,45.0,42.2,23.28,SSE,156,0.0,0.0,90,0.00,,,0.00,VWS V13.01,2013-01-29 10:28:00,
2013-01-29 05:33:00,44.5,41.8,23.28,SSE,157,0.0,0.0,90,0.00,,,0.00,VWS V13.01,2013-01-29 10:33:00,
2013-01-29 05:38:00,44.4,41.7,23.28,SSE,157,0.0,3.0,90,0.00,,,0.00,VWS V13.01,2013-01-29 10:38:00,
2013-01-29 05:43:00,44.8,42.3,23.28,SSE,156,0.0,0.0,91,0.00,,,0.00,VWS V13.01,2013-01-29 10:43:00,
2013-01-29 05:48:00,44.8,42.0,23.28,SSE,156,1.0,1.0,90,0.00,,,0.00,VWS V13.01,2013-01-29 10:48:00,
2013-01-29 05:53:00,44.5,41.8,23.28,SSE,157,0.0,2.0,90,0.00,,,0.00,VWS V13.01,2013-01-29 10:53:00,
2013-01-29 05:58:00,44.7,42.2,23.28,SSE,156,0.0,1.0,91,0.00,,,0.00,VWS V13.01,2013-01-29 10:58:00,
2013-01-29 06:03:00,45.1,42.6,23.28,SSE,156,2.0,3.0,91,0.00,,,0.00,VWS V13.01,2013-01-29 11:03:00,
2013-01-29 06:08:00,45.5,43.0,23.28,SSE,156,1.0,1.0,91,0.00,,,0.00,VWS V13.01,2013-01-29 11:08:00,
2013-01-29 06:13:00,45.5,42.7,23.28,SSE,157,0.0,2.0,90,0.00,,,0.00,VWS V13.01,2013-01-29 11:13:00,
2013-01-29 06:18:00,45.5,42.7,23.28,SSE,157,0.0,1.0,90,0.00,,,0.00,VWS V13.01,2013-01-29 11:18:00,
2013-01-29 06:23:00,45.3,42.5,23.28,SSE,156,0.0,1.0,90,0.00,,,0.00,VWS V13.01,2013-01-29 11:23:00,
2013-01-29 06:28:00,45.3,42.5,23.28,SSE,156,1.0,1.0,90,0.00,,,0.00,VWS V13.01,2013-01-29 11:28:00,
2013-01-29 06:33:00,45.5,42.7,23.28,SSE,157,0.0,2.0,90,0.00,,,0.00,VWS V13.01,2013-01-29 11:33:00,
2013-01-29 06:38:00,45.7,42.9,23.28,SSE,157,2.0,3.0,90,0.00,,,0.00,VWS V13.01,2013-01-29 11:38:00,
2013-01-29 06:43:00,45.8,43.0,23.28,SSE,156,0.0,2.0,90,0.00,,,0.00,VWS V13.01,2013-01-29 11:43:00,
2013-01-29 06:48:00,45.7,42.9,23.28,SSE,156,1.0,4.0,90,0.00,,,0.00,VWS V13.01,2013-01-29 11:48:00,
2013-01-29 06:53:00,45.9,43.1,23.28,SSE,157,1.0,4.0,90,0.00,,,0.00,VWS V13.01,2013-01-29 11:53:00,
2013-01-29 06:58:00,46.0,43.2,23.28,SSE,159,2.0,3.0,90,0.00,,,0.00,VWS V13.01,2013-01-29 11:58:00,
2013-01-29 07:03:00,46.2,43.1,23.28,SSE,163,2.0,3.0,89,0.00,,,0.00,VWS V13.01,2013-01-29 12:03:00,
2013-01-29 07:08:00,46.3,43.2,23.28,SSE,165,1.0,3.0,89,0.00,,,0.00,VWS V13.01,2013-01-29 12:08:00,
2013-01-29 07:13:00,46.3,43.2,23.28,SSE,160,0.0,2.0,89,0.00,,,0.00,VWS V13.01,2013-01-29 12:13:00,
2013-01-29 07:18:00,46.4,43.3,23.28,SSE,166,3.0,5.0,89,0.00,,,0.00,VWS V13.01,2013-01-29 12:18:00,
2013-01-29 07:23:00,46.5,43.4,23.28,SSE,152,3.0,3.0,89,0.00,,,0.00,VWS V13.01,2013-01-29 12:23:00,
2013-01-29 07:28:00,46.8,43.7,23.28,SSE,152,2.0,3.0,89,0.00,,,0.00,VWS V13.01,2013-01-29 12:28:00,
2013-01-29 07:33:00,47.0,43.6,23.28,SSE,159,2.0,2.0,88,0.00,,,0.00,VWS V13.01,2013-01-29 12:33:00,
2013-01-29 07:38:00,47.2,43.8,23.28,SSE,159,1.0,3.0,88,0.00,,,0.00,VWS V13.01,2013-01-29 12:38:00,
2013-01-29 07:43:00,47.3,43.9,23.28,SSE,158,0.0,0.0,88,0.00,,,0.00,VWS V13.01,2013-01-29 12:43:00,
2013-01-29 07:48:00,47.4,44.0,23.28,SSE,157,0.0,0.0,88,0.00,,,0.00,VWS V13.01,2013-01-29 12:48:00,
2013-01-29 07:53:00,47.4,44.0,23.28,SSE,157,0.0,1.0,88,0.00,,,0.00,VWS V13.01,2013-01-29 12:53:00,
2013-01-29 07:58:00,47.5,44.1,23.28,SSE,157,0.0,1.0,88,0.00,,,0.00,VWS V13.01,2013-01-29 12:58:00,
2013-01-29 08:03:00,47.5,44.1,23.28,SSE,157,0.0,0.0,88,0.00,,,0.00,VWS V13.01,2013-01-29 13:03:00,
2013-01-29 08:08:00,47.6,44.2,23.28,SSE,157,0.0,0.0,88,0.00,,,0.00,VWS V13.01,2013-01-29 13:08:00,
2013-01-29 08:13:00,48.5,45.1,23.28,SSE,157,0.0,1.0,88,0.00,,,0.00,VWS V13.01,2013-01-29 13:13:00,
2013-01-29 08:18:00,48.7,44.7,23.28,SSE,157,0.0,0.0,86,0.00,,,0.00,VWS V13.01,2013-01-29 13:18:00,
2013-01-29 08:23:00,48.3,44.3,23.28,SSE,157,1.0,1.0,86,0.00,,,0.00,VWS V13.01,2013-01-29 13:23:00,
2013-01-29 08:28:00,48.0,44.0,23.28,SSE,156,0.0,0.0,86,0.00,,,0.00,VWS V13.01,2013-01-29 13:28:00,
2013-01-29 08:33:00,48.2,44.5,23.28,SSE,157,0.0,0.0,87,0.00,,,0.00,VWS V13.01,2013-01-29 13:33:00,
2013-01-29 08:38:00,49.0,45.0,23.28,SSE,157,1.0,2.0,86,0.00,,,0.00,VWS V13.01,2013-01-29 13:38:00,
2013-01-29 08:43:00,49.4,45.1,23.28,SE,144,0.0,2.0,85,0.00,,,0.00,VWS V13.01,2013-01-29 13:43:00,
2013-01-29 08:48:00,49.6,45.0,23.28,SE,143,0.0,1.0,84,0.00,,,0.00,VWS V13.01,2013-01-29 13:48:00,
2013-01-29 08:53:00,49.9,45.6,23.28,SE,143,1.0,1.0,85,0.00,,,0.00,VWS V13.01,2013-01-29 13:53:00,
2013-01-29 08:58:00,50.4,45.4,23.28,ESE,121,3.0,4.0,83,0.00,,,0.00,VWS V13.01,2013-01-29 13:58:00,
2013-01-29 09:03:00,50.5,45.5,23.28,East,90,2.0,5.0,83,0.00,,,0.00,VWS V13.01,2013-01-29 14:03:00,
2013-01-29 09:08:00,50.8,45.8,23.28,ENE,78,2.0,2.0,83,0.00,,,0.00,VWS V13.01,2013-01-29 14:08:00,
2013-01-29 09:13:00,51.2,45.9,23.28,East,82,3.0,3.0,82,0.00,,,0.00,VWS V13.01,2013-01-29 14:13:00,
2013-01-29 09:18:00,51.3,46.0,23.28,SE,140,2.0,5.0,82,0.00,,,0.00,VWS V13.01,2013-01-29 14:18:00,
2013-01-29 09:23:00,51.6,46.3,23.28,ESE,118,2.0,3.0,82,0.00,,,0.00,VWS V13.01,2013-01-29 14:23:00,
2013-01-29 09:28:00,51.9,46.3,23.28,East,98,3.0,3.0,81,0.00,,,0.00,VWS V13.01,2013-01-29 14:28:00,
2013-01-29 09:33:00,52.3,46.7,23.28,East,98,0.0,2.0,81,0.00,,,0.00,VWS V13.01,2013-01-29 14:33:00,
2013-01-29 09:38:00,52.9,47.2,23.28,East,99,2.0,3.0,81,0.00,,,0.00,VWS V13.01,2013-01-29 14:38:00,
2013-01-29 09:43:00,53.0,47.0,23.28,ESE,105,1.0,2.0,80,0.00,,,0.00,VWS V13.01,2013-01-29 14:43:00,
2013-01-29 09:48:00,53.5,47.5,23.28,ESE,105,1.0,1.0,80,0.00,,,0.00,VWS V13.01,2013-01-29 14:48:00,
2013-01-29 09:53:00,53.9,47.5,23.28,East,86,2.0,2.0,79,0.00,,,0.00,VWS V13.01,2013-01-29 14:53:00,
2013-01-29 09:58:00,54.7,48.3,23.28,East,87,0.0,1.0,79,0.00,,,0.00,VWS V13.01,2013-01-29 14:58:00,
2013-01-29 10:03:00,55.4,48.3,23.28,ENE,59,0.0,1.0,77,0.00,,,0.00,VWS V13.01,2013-01-29 15:03:00,
2013-01-29 10:08:00,56.4,48.9,23.28,NE,38,1.0,3.0,76,0.00,,,0.00,VWS V13.01,2013-01-29 15:08:00,
2013-01-29 10:13:00,56.7,48.9,23.28,NE,38,1.0,2.0,75,0.00,,,0.00,VWS V13.01,2013-01-29 15:13:00,
2013-01-29 10:18:00,57.0,48.8,23.28,NNE,33,1.0,3.0,74,0.00,,,0.00,VWS V13.01,2013-01-29 15:18:00,
2013-01-29 10:23:00,57.3,49.1,23.28,NNE,22,1.0,3.0,74,0.00,,,0.00,VWS V13.01,2013-01-29 15:23:00,
2013-01-29 10:28:00,57.5,49.3,23.28,NNE,22,1.0,2.0,74,0.00,,,0.00,VWS V13.01,2013-01-29 15:28:00,
2013-01-29 10:33:00,57.9,49.3,23.28,NNE,22,1.0,3.0,73,0.00,,,0.00,VWS V13.01,2013-01-29 15:33:00,
2013-01-29 10:38:00,58.1,49.5,23.28,NNE,22,1.0,1.0,73,0.00,,,0.00,VWS V13.01,2013-01-29 15:38:00,
2013-01-29 10:43:00,58.8,50.2,23.28,NNE,18,4.0,4.0,73,0.00,,,0.00,VWS V13.01,2013-01-29 15:43:00,
2013-01-29 10:48:00,59.0,50.4,23.28,NNE,26,1.0,3.0,73,0.00,,,0.00,VWS V13.01,2013-01-29 15:48:00,
2013-01-29 10:53:00,59.0,50.0,23.28,ENE,59,3.0,4.0,72,0.00,,,0.00,VWS V13.01,2013-01-29 15:53:00,
2013-01-29 10:58:00,58.6,50.0,23.28,NE,49,1.0,3.0,73,0.00,,,0.00,VWS V13.01,2013-01-29 15:58:00,
2013-01-29 11:03:00,59.0,50.4,23.28,NE,50,2.0,3.0,73,0.00,,,0.00,VWS V13.01,2013-01-29 16:03:00,
2013-01-29 11:08:00,59.6,50.2,23.28,NE,53,2.0,4.0,71,0.00,,,0.00,VWS V13.01,2013-01-29 16:08:00,
2013-01-29 11:13:00,59.8,50.4,23.28,NE,54,0.0,2.0,71,0.00,,,0.00,VWS V13.01,2013-01-29 16:13:00,
2013-01-29 11:18:00,60.4,51.0,23.28,ENE,57,2.0,3.0,71,0.00,,,0.00,VWS V13.01,2013-01-29 16:18:00,
2013-01-29 11:23:00,61.0,51.2,23.28,ENE,65,0.0,2.0,70,0.00,,,0.00,VWS V13.01,2013-01-29 16:23:00,
2013-01-29 11:28:00,61.9,51.6,23.28,ENE,67,0.0,1.0,69,0.00,,,0.00,VWS V13.01,2013-01-29 16:28:00,
2013-01-29 11:33:00,62.5,51.8,23.28,ENE,69,1.0,3.0,68,0.00,,,0.00,VWS V13.01,2013-01-29 16:33:00,
2013-01-29 11:38:00,62.6,51.9,23.28,NNE,28,1.0,3.0,68,0.00,,,0.00,VWS V13.01,2013-01-29 16:38:00,
2013-01-29 11:43:00,62.9,52.2,23.28,North,11,2.0,2.0,68,0.00,,,0.00,VWS V13.01,2013-01-29 16:43:00,
2013-01-29 11:48:00,62.9,52.2,23.28,NNE,24,3.0,3.0,68,0.00,,,0.00,VWS V13.01,2013-01-29 16:48:00,
2013-01-29 11:53:00,63.5,52.8,23.28,ESE,116,3.0,4.0,68,0.00,,,0.00,VWS V13.01,2013-01-29 16:53:00,
2013-01-29 11:58:00,63.3,52.6,23.28,ENE,57,0.0,3.0,68,0.00,,,0.00,VWS V13.01,2013-01-29 16:58:00,
2013-01-29 12:03:00,63.4,52.3,23.28,NE,56,1.0,4.0,67,0.00,,,0.00,VWS V13.01,2013-01-29 17:03:00,
2013-01-29 12:08:00,63.3,52.2,23.28,ENE,70,4.0,5.0,67,0.00,,,0.00,VWS V13.01,2013-01-29 17:08:00,
2013-01-29 12:13:00,63.2,52.5,23.28,ENE,71,3.0,3.0,68,0.00,,,0.00,VWS V13.01,2013-01-29 17:13:00,
2013-01-29 12:18:00,63.5,52.4,23.28,NE,49,4.0,6.0,67,0.00,,,0.00,VWS V13.01,2013-01-29 17:18:00,
2013-01-29 12:23:00,63.4,52.7,23.28,ENE,57,3.0,5.0,68,0.00,,,0.00,VWS V13.01,2013-01-29 17:23:00,
2013-01-29 12:28:00,63.8,52.7,23.28,NE,54,5.0,6.0,67,0.00,,,0.00,VWS V13.01,2013-01-29 17:28:00,
2013-01-29 12:33:00,64.0,52.8,23.28,NE,34,4.0,5.0,67,0.00,,,0.00,VWS V13.01,2013-01-29 17:33:00,
2013-01-29 12:38:00,64.4,52.8,23.28,ENE,65,2.0,3.0,66,0.00,,,0.00,VWS V13.01,2013-01-29 17:38:00,
2013-01-29 12:43:00,64.9,53.3,23.28,NE,38,3.0,4.0,66,0.00,,,0.00,VWS V13.01,2013-01-29 17:43:00,
2013-01-29 12:48:00,65.8,54.1,23.28,ENE,63,5.0,5.0,66,0.00,,,0.00,VWS V13.01,2013-01-29 17:48:00,
2013-01-29 12:53:00,65.5,53.4,23.28,ENE,68,4.0,7.0,65,0.00,,,0.00,VWS V13.01,2013-01-29 17:53:00,
2013-01-29 12:58:00,66.1,54.0,23.28,NE,51,4.0,6.0,65,0.00,,,0.00,VWS V13.01,2013-01-29 17:58:00,
2013-01-29 13:03:00,65.9,53.8,23.28,NE,55,5.0,5.0,65,0.00,,,0.00,VWS V13.01,2013-01-29 18:03:00,
2013-01-29 13:08:00,65.8,54.1,23.28,ENE,63,3.0,5.0,66,0.00,,,0.00,VWS V13.01,2013-01-29 18:08:00,
2013-01-29 13:13:00,65.7,54.0,23.28,East,90,1.0,4.0,66,0.00,,,0.00,VWS V13.01,2013-01-29 18:13:00,
2013-01-29 13:18:00,66.3,54.6,23.28,East,92,5.0,5.0,66,0.00,,,0.00,VWS V13.01,2013-01-29 18:18:00,
2013-01-29 13:23:00,66.4,54.7,23.28,ESE,110,5.0,5.0,66,0.00,,,0.00,VWS V13.01,2013-01-29 18:23:00,
2013-01-29 13:28:00,66.5,54.8,23.28,NE,49,4.0,5.0,66,0.00,,,0.00,VWS V13.01,2013-01-29 18:28:00,
2013-01-29 13:33:00,66.6,54.5,23.28,ENE,69,2.0,7.0,65,0.00,,,0.00,VWS V13.01,2013-01-29 18:33:00,
2013-01-29 13:38:00,66.9,54.8,23.28,ENE,63,2.0,5.0,65,0.00,,,0.00,VWS V13.01,2013-01-29 18:38:00,
2013-01-29 13:43:00,67.2,55.0,23.28,ENE,61,6.0,6.0,65,0.00,,,0.00,VWS V13.01,2013-01-29 18:43:00,
2013-01-29 13:48:00,67.5,55.3,23.28,SSE,155,4.0,6.0,65,0.00,,,0.00,VWS V13.01,2013-01-29 18:48:00,
2013-01-29 13:53:00,67.8,55.2,23.28,East,95,3.0,5.0,64,0.00,,,0.00,VWS V13.01,2013-01-29 18:53:00,
2013-01-29 13:58:00,68.3,55.7,23.28,NE,47,2.0,3.0,64,0.00,,,0.00,VWS V13.01,2013-01-29 18:58:00,
2013-01-29 14:03:00,68.5,55.4,23.28,East,100,5.0,5.0,63,0.00,,,0.00,VWS V13.01,2013-01-29 19:03:00,
2013-01-29 14:08:00,68.1,55.0,23.28,ENE,69,4.0,7.0,63,0.00,,,0.00,VWS V13.01,2013-01-29 19:08:00,
2013-01-29 14:13:00,68.5,55.4,23.28,NNE,32,3.0,4.0,63,0.00,,,0.00,VWS V13.01,2013-01-29 19:13:00,
2013-01-29 14:18:00,68.9,55.4,23.28,ENE,67,4.0,11.0,62,0.00,,,0.00,VWS V13.01,2013-01-29 19:18:00,
2013-01-29 14:23:00,68.8,55.3,23.28,NE,56,4.0,9.0,62,0.00,,,0.00,VWS V13.01,2013-01-29 19:23:00,
2013-01-29 14:28:00,69.0,55.9,23.28,NNE,18,4.0,5.0,63,0.00,,,0.00,VWS V13.01,2013-01-29 19:28:00,
2013-01-29 14:33:00,69.2,55.6,23.28,NE,34,1.0,6.0,62,0.00,,,0.00,VWS V13.01,2013-01-29 19:33:00,
2013-01-29 14:38:00,69.5,55.9,23.28,ENE,67,4.0,9.0,62,0.00,,,0.00,VWS V13.01,2013-01-29 19:38:00,
2013-01-29 14:43:00,69.4,55.8,23.28,ENE,68,8.0,10.0,62,0.00,,,0.00,VWS V13.01,2013-01-29 19:43:00,
2013-01-29 14:48:00,69.2,55.6,23.28,East,86,7.0,7.0,62,0.00,,,0.00,VWS V13.01,2013-01-29 19:48:00,
2013-01-29 14:53:00,69.3,55.7,23.28,NNE,32,5.0,7.0,62,0.00,,,0.00,VWS V13.01,2013-01-29 19:53:00,
2013-01-29 14:57:00,69.3,55.7,23.28,NE,41,4.0,4.0,62,0.00,,,0.00,VWS V13.01,2013-01-29 19:57:00,
2013-01-29 15:02:00,69.5,55.9,23.28,East,80,3.0,4.0,62,0.00,,,0.00,VWS V13.01,2013-01-29 20:02:00,
2013-01-29 15:07:00,69.9,55.8,23.28,NE,53,4.0,5.0,61,0.00,,,0.00,VWS V13.01,2013-01-29 20:07:00,
2013-01-29 15:12:00,70.0,56.0,23.28,East,81,3.0,4.0,61,0.00,,,0.00,VWS V13.01,2013-01-29 20:12:00,
2013-01-29 15:17:00,70.1,56.0,23.28,East,81,2.0,4.0,61,0.00,,,0.00,VWS V13.01,2013-01-29 20:17:00,
2013-01-29 15:22:00,70.4,56.3,23.28,East,95,2.0,3.0,61,0.00,,,0.00,VWS V13.01,2013-01-29 20:22:00,
2013-01-29 15:27:00,70.2,56.1,23.28,East,82,2.0,2.0,61,0.00,,,0.00,VWS V13.01,2013-01-29 20:27:00,
2013-01-29 15:32:00,69.5,55.9,23.28,East,88,5.0,7.0,62,0.00,,,0.00,VWS V13.01,2013-01-29 20:32:00,
2013-01-29 15:37:00,69.2,55.6,23.28,ESE,117,3.0,6.0,62,0.00,,,0.00,VWS V13.01,2013-01-29 20:37:00,
2013-01-29 15:42:00,69.1,55.5,23.28,ENE,76,3.0,6.0,62,0.00,,,0.00,VWS V13.01,2013-01-29 20:42:00,
2013-01-29 15:47:00,69.2,55.6,23.28,ENE,64,3.0,6.0,62,0.00,,,0.00,VWS V13.01,2013-01-29 20:47:00,
2013-01-29 15:52:00,69.5,55.9,23.28,NE,40,7.0,7.0,62,0.00,,,0.00,VWS V13.01,2013-01-29 20:52:00,
2013-01-29 15:57:00,69.0,55.5,23.28,NNE,29,2.0,5.0,62,0.00,,,0.00,VWS V13.01,2013-01-29 20:57:00,
2013-01-29 16:02:00,68.8,55.7,23.28,ENE,72,2.0,3.0,63,0.00,,,0.00,VWS V13.01,2013-01-29 21:02:00,
2013-01-29 16:07:00,68.7,55.6,23.28,ENE,59,4.0,8.0,63,0.00,,,0.00,VWS V13.01,2013-01-29 21:07:00,
2013-01-29 16:12:00,68.5,55.4,23.28,ESE,110,4.0,5.0,63,0.00,,,0.00,VWS V13.01,2013-01-29 21:12:00,
2013-01-29 16:17:00,68.3,55.2,23.28,ENE,72,3.0,4.0,63,0.00,,,0.00,VWS V13.01,2013-01-29 21:17:00,
2013-01-29 16:22:00,68.3,55.7,23.28,East,81,2.0,3.0,64,0.00,,,0.00,VWS V13.01,2013-01-29 21:22:00,
2013-01-29 16:27:00,68.3,55.7,23.28,SE,138,0.0,1.0,64,0.00,,,0.00,VWS V13.01,2013-01-29 21:27:00,
2013-01-29 16:32:00,68.5,55.9,23.28,ENE,57,3.0,3.0,64,0.00,,,0.00,VWS V13.01,2013-01-29 21:32:00,
2013-01-29 16:37:00,68.3,55.7,23.28,NE,53,2.0,3.0,64,0.00,,,0.00,VWS V13.01,2013-01-29 21:37:00,
2013-01-29 16:42:00,68.1,55.5,23.28,NE,43,3.0,8.0,64,0.00,,,0.00,VWS V13.01,2013-01-29 21:42:00,
2013-01-29 16:48:00,67.9,55.3,23.28,ENE,78,1.0,5.0,64,0.00,,,0.00,VWS V13.01,2013-01-29 21:48:00,
2013-01-29 16:53:00,67.8,55.6,23.28,East,91,3.0,5.0,65,0.00,,,0.00,VWS V13.01,2013-01-29 21:53:00,
2013-01-29 16:58:00,67.5,55.3,23.28,NE,56,3.0,3.0,65,0.00,,,0.00,VWS V13.01,2013-01-29 21:58:00,
2013-01-29 17:03:00,67.2,55.0,23.28,ENE,59,1.0,3.0,65,0.00,,,0.00,VWS V13.01,2013-01-29 22:03:00,
2013-01-29 17:08:00,67.0,55.3,23.28,ENE,61,0.0,1.0,66,0.00,,,0.00,VWS V13.01,2013-01-29 22:08:00,
2013-01-29 17:13:00,66.8,55.1,23.28,ENE,60,1.0,1.0,66,0.00,,,0.00,VWS V13.01,2013-01-29 22:13:00,
2013-01-29 17:18:00,66.6,54.9,23.28,ENE,60,0.0,2.0,66,0.00,,,0.00,VWS V13.01,2013-01-29 22:18:00,
2013-01-29 17:23:00,66.3,55.0,23.28,ENE,61,0.0,1.0,67,0.00,,,0.00,VWS V13.01,2013-01-29 22:23:00,
2013-01-29 17:28:00,66.1,54.8,23.28,NE,49,4.0,4.0,67,0.00,,,0.00,VWS V13.01,2013-01-29 22:28:00,
2013-01-29 17:33:00,65.8,54.5,23.28,NE,53,3.0,3.0,67,0.00,,,0.00,VWS V13.01,2013-01-29 22:33:00,
2013-01-29 17:38:00,65.6,54.8,23.28,NE,53,0.0,1.0,68,0.00,,,0.00,VWS V13.01,2013-01-29 22:38:00,
2013-01-29 17:43:00,65.4,54.6,23.28,NE,55,1.0,3.0,68,0.00,,,0.00,VWS V13.01,2013-01-29 22:43:00,
2013-01-29 17:48:00,65.2,54.4,23.28,NE,55,0.0,1.0,68,0.00,,,0.00,VWS V13.01,2013-01-29 22:48:00,
2013-01-29 17:53:00,65.1,54.7,23.28,NE,55,0.0,1.0,69,0.00,,,0.00,VWS V13.01,2013-01-29 22:53:00,
2013-01-29 18:00:00,64.8,54.4,23.28,ENE,59,0.0,4.0,69,0.00,,,0.00,VWS V13.01,2013-01-29 23:00:00,
2013-01-29 18:05:00,64.5,54.5,23.28,East,82,3.0,6.0,70,0.00,,,0.00,VWS V13.01,2013-01-29 23:05:00,
2013-01-29 18:10:00,64.4,54.4,23.28,ENE,61,1.0,5.0,70,0.00,,,0.00,VWS V13.01,2013-01-29 23:10:00,
2013-01-29 18:15:00,64.2,54.2,23.28,SE,136,0.0,5.0,70,0.00,,,0.00,VWS V13.01,2013-01-29 23:15:00,
2013-01-29 18:20:00,64.0,54.4,23.28,East,88,0.0,5.0,71,0.00,,,0.00,VWS V13.01,2013-01-29 23:20:00,
2013-01-29 18:25:00,63.9,54.3,23.28,East,87,2.0,3.0,71,0.00,,,0.00,VWS V13.01,2013-01-29 23:25:00,
2013-01-29 18:30:00,63.8,54.2,23.28,East,87,4.0,5.0,71,0.00,,,0.00,VWS V13.01,2013-01-29 23:30:00,
2013-01-29 18:35:00,63.6,54.0,23.28,NE,52,2.0,3.0,71,0.00,,,0.00,VWS V13.01,2013-01-29 23:35:00,
2013-01-29 18:40:00,63.4,54.2,23.28,ENE,65,2.0,4.0,72,0.00,,,0.00,VWS V13.01,2013-01-29 23:40:00,
2013-01-29 18:45:00,63.3,54.1,23.28,ENE,63,3.0,3.0,72,0.00,,,0.00,VWS V13.01,2013-01-29 23:45:00,
2013-01-29 18:50:00,63.2,54.0,23.28,ENE,63,2.0,3.0,72,0.00,,,0.00,VWS V13.01,2013-01-29 23:50:00,
2013-01-29 18:55:00,63.1,53.9,23.28,NE,34,3.0,3.0,72,0.00,,,0.00,VWS V13.01,2013-01-29 23:55:00,
2013-01-29 19:00:00,62.9,53.8,23.28,ENE,57,2.0,4.0,72,0.00,,,0.00,VWS V13.01,2013-01-30 00:00:00,
2013-01-29 19:05:00,62.7,53.9,23.28,ENE,57,2.0,4.0,73,0.00,,,0.00,VWS V13.01,2013-01-30 00:05:00,
2013-01-29 19:10:00,62.5,53.7,23.28,ENE,57,0.0,1.0,73,0.00,,,0.00,VWS V13.01,2013-01-30 00:10:00,
2013-01-29 19:15:00,62.4,53.6,23.28,ENE,57,0.0,2.0,73,0.00,,,0.00,VWS V13.01,2013-01-30 00:15:00,
2013-01-29 19:20:00,62.2,53.5,23.28,ENE,57,0.0,1.0,73,0.00,,,0.00,VWS V13.01,2013-01-30 00:20:00,
2013-01-29 19:25:00,62.0,53.3,23.28,ENE,57,0.0,1.0,73,0.00,,,0.00,VWS V13.01,2013-01-30 00:25:00,
2013-01-29 19:30:00,61.9,53.5,23.28,ENE,57,0.0,1.0,74,0.00,,,0.00,VWS V13.01,2013-01-30 00:30:00,
2013-01-29 19:35:00,61.6,53.2,23.28,NE,56,0.0,0.0,74,0.00,,,0.00,VWS V13.01,2013-01-30 00:35:00,
2013-01-29 19:40:00,61.3,53.0,23.28,NE,56,0.0,0.0,74,0.00,,,0.00,VWS V13.01,2013-01-30 00:40:00,
2013-01-29 19:45:00,60.8,52.8,23.28,ENE,57,0.0,0.0,75,0.00,,,0.00,VWS V13.01,2013-01-30 00:45:00,
2013-01-29 19:50:00,60.3,52.3,23.28,ENE,57,0.0,0.0,75,0.00,,,0.00,VWS V13.01,2013-01-30 00:50:00,
2013-01-29 19:55:00,59.8,52.2,23.28,ENE,57,0.0,0.0,76,0.00,,,0.00,VWS V13.01,2013-01-30 00:55:00,
2013-01-29 20:00:00,59.4,52.2,23.28,NE,56,0.0,0.0,77,0.00,,,0.00,VWS V13.01,2013-01-30 01:00:00,
2013-01-29 20:05:00,59.2,52.3,23.28,ENE,57,0.0,0.0,78,0.00,,,0.00,VWS V13.01,2013-01-30 01:05:00,
2013-01-29 20:10:00,59.0,52.2,23.28,ENE,57,0.0,1.0,78,0.00,,,0.00,VWS V13.01,2013-01-30 01:10:00,
2013-01-29 20:15:00,59.0,52.5,23.28,NE,56,0.0,0.0,79,0.00,,,0.00,VWS V13.01,2013-01-30 01:15:00,
2013-01-29 20:20:00,59.0,52.5,23.28,NE,56,0.0,1.0,79,0.00,,,0.00,VWS V13.01,2013-01-30 01:20:00,
2013-01-29 20:25:00,59.0,52.5,23.28,ENE,57,0.0,1.0,79,0.00,,,0.00,VWS V13.01,2013-01-30 01:25:00,
2013-01-29 20:30:00,59.0,52.5,23.28,NE,56,0.0,1.0,79,0.00,,,0.00,VWS V13.01,2013-01-30 01:30:00,
2013-01-29 20:35:00,59.0,52.5,23.28,ENE,57,0.0,0.0,79,0.00,,,0.00,VWS V13.01,2013-01-30 01:35:00,
2013-01-29 20:40:00,59.0,52.5,23.28,ENE,57,0.0,0.0,79,0.00,,,0.00,VWS V13.01,2013-01-30 01:40:00,
2013-01-29 20:45:00,59.0,52.5,23.28,NE,56,0.0,0.0,79,0.00,,,0.00,VWS V13.01,2013-01-30 01:45:00,
2013-01-29 20:50:00,59.0,52.5,23.28,NE,56,0.0,0.0,79,0.00,,,0.00,VWS V13.01,2013-01-30 01:50:00,
2013-01-29 20:55:00,58.9,52.4,23.28,ENE,57,0.0,1.0,79,0.00,,,0.00,VWS V13.01,2013-01-30 01:55:00,
2013-01-29 21:00:00,58.7,52.6,23.28,ENE,57,0.0,0.0,80,0.00,,,0.00,VWS V13.01,2013-01-30 02:00:00,
2013-01-29 21:05:00,58.5,52.4,23.28,ENE,57,0.0,0.0,80,0.00,,,0.00,VWS V13.01,2013-01-30 02:05:00,
2013-01-29 21:10:00,58.7,52.6,23.28,ENE,57,0.0,2.0,80,0.00,,,0.00,VWS V13.01,2013-01-30 02:10:00,
2013-01-29 21:15:00,59.0,52.8,23.28,NE,56,0.0,3.0,80,0.00,,,0.00,VWS V13.01,2013-01-30 02:15:00,
2013-01-29 21:20:00,59.0,52.8,23.28,ENE,69,2.0,5.0,80,0.00,,,0.00,VWS V13.01,2013-01-30 02:20:00,
2013-01-29 21:25:00,59.0,52.8,23.28,ENE,71,1.0,2.0,80,0.00,,,0.00,VWS V13.01,2013-01-30 02:25:00,
2013-01-29 21:30:00,59.0,52.5,23.28,East,84,2.0,2.0,79,0.00,,,0.00,VWS V13.01,2013-01-30 02:30:00,
2013-01-29 21:35:00,59.3,52.8,23.28,East,82,4.0,5.0,79,0.00,,,0.00,VWS V13.01,2013-01-30 02:35:00,
2013-01-29 21:40:00,59.4,52.9,23.28,ENE,65,1.0,4.0,79,0.00,,,0.00,VWS V13.01,2013-01-30 02:40:00,
2013-01-29 21:45:00,59.3,52.8,23.28,ENE,78,2.0,3.0,79,0.00,,,0.00,VWS V13.01,2013-01-30 02:45:00,
2013-01-29 21:50:00,59.1,52.6,23.28,East,82,2.0,5.0,79,0.00,,,0.00,VWS V13.01,2013-01-30 02:50:00,
2013-01-29 21:55:00,59.1,52.6,23.28,ENE,76,2.0,6.0,79,0.00,,,0.00,VWS V13.01,2013-01-30 02:55:00,
2013-01-29 22:00:00,59.0,52.8,23.28,ENE,76,1.0,3.0,80,0.00,,,0.00,VWS V13.01,2013-01-30 03:00:00,
2013-01-29 22:05:00,59.0,52.8,23.28,East,84,1.0,3.0,80,0.00,,,0.00,VWS V13.01,2013-01-30 03:05:00,
2013-01-29 22:10:00,59.0,52.8,23.28,East,82,3.0,5.0,80,0.00,,,0.00,VWS V13.01,2013-01-30 03:10:00,
2013-01-29 22:15:00,59.0,52.8,23.28,ENE,69,0.0,5.0,80,0.00,,,0.00,VWS V13.01,2013-01-30 03:15:00,
2013-01-29 22:20:00,59.0,52.8,23.28,East,98,3.0,5.0,80,0.00,,,0.00,VWS V13.01,2013-01-30 03:20:00,
2013-01-29 22:25:00,59.0,52.8,23.28,ENE,76,0.0,6.0,80,0.00,,,0.00,VWS V13.01,2013-01-30 03:25:00,
2013-01-29 22:30:00,58.8,52.7,23.28,ENE,63,2.0,3.0,80,0.00,,,0.00,VWS V13.01,2013-01-30 03:30:00,
2013-01-29 22:35:00,58.8,52.7,23.28,ENE,72,1.0,2.0,80,0.00,,,0.00,VWS V13.01,2013-01-30 03:35:00,
2013-01-29 22:40:00,58.7,52.6,23.28,SE,146,1.0,4.0,80,0.00,,,0.00,VWS V13.01,2013-01-30 03:40:00,
2013-01-29 22:45:00,58.7,52.9,23.28,ESE,111,3.0,4.0,81,0.00,,,0.00,VWS V13.01,2013-01-30 03:45:00,
2013-01-29 22:50:00,58.4,52.6,23.28,ESE,107,0.0,3.0,81,0.00,,,0.00,VWS V13.01,2013-01-30 03:50:00,
2013-01-29 22:55:00,58.2,52.4,23.28,ESE,107,1.0,1.0,81,0.00,,,0.00,VWS V13.01,2013-01-30 03:55:00,
2013-01-29 23:00:00,58.0,52.2,23.28,ESE,109,0.0,3.0,81,0.00,,,0.00,VWS V13.01,2013-01-30 04:00:00,
2013-01-29 23:05:00,58.0,52.5,23.28,ESE,109,0.0,3.0,82,0.00,,,0.00,VWS V13.01,2013-01-30 04:05:00,
2013-01-29 23:10:00,58.1,52.6,23.28,NE,45,1.0,4.0,82,0.00,,,0.00,VWS V13.01,2013-01-30 04:10:00,
2013-01-29 23:15:00,58.1,52.3,23.28,ENE,66,0.0,3.0,81,0.00,,,0.00,VWS V13.01,2013-01-30 04:15:00,
2013-01-29 23:20:00,58.0,52.5,23.28,East,93,3.0,3.0,82,0.00,,,0.00,VWS V13.01,2013-01-30 04:20:00,
2013-01-29 23:25:00,58.0,52.5,23.28,ESE,122,3.0,4.0,82,0.00,,,0.00,VWS V13.01,2013-01-30 04:25:00,
2013-01-29 23:30:00,57.9,52.5,23.28,ESE,112,1.0,4.0,82,0.00,,,0.00,VWS V13.01,2013-01-30 04:30:00,
2013-01-29 23:35:00,57.9,52.5,23.28,ENE,63,3.0,5.0,82,0.00,,,0.00,VWS V13.01,2013-01-30 04:35:00,
2013-01-29 23:40:00,57.9,52.5,23.28,ENE,65,2.0,4.0,82,0.00,,,0.00,VWS V13.01,2013-01-30 04:40:00,
2013-01-29 23:45:00,57.9,52.5,23.28,East,92,2.0,7.0,82,0.00,,,0.00,VWS V13.01,2013-01-30 04:45:00,
2013-01-29 23:50:00,58.0,52.5,23.28,ENE,67,1.0,5.0,82,0.00,,,0.00,VWS V13.01,2013-01-30 04:50:00,
2013-01-29 23:55:00,58.1,52.6,23.28,East,82,2.0,6.0,82,0.00,,,0.00,VWS V13.01,2013-01-30 04:55:00,